sensor_id;sensor_type;location;lat;lon;timestamp;pressure;altitude;pressure_sealevel;temperature;humidity
84990;BME280;75307;53.836;10.476;2024-02-21T16:27:51;100737.03;;;8.11;83.34
84990;BME280;75307;53.836;10.476;2024-02-21T16:29:52;100729.66;;;7.89;83.53
84990;BME280;75307;53.836;10.476;2024-02-21T16:31:54;100725.81;;;7.67;84.30
84990;BME280;75307;53.836;10.476;2024-02-21T16:33:56;100722.66;;;7.53;84.34
84990;BME280;75307;53.836;10.476;2024-02-21T16:35:58;100724.50;;;7.48;85.09
84990;BME280;75307;53.836;10.476;2024-02-21T16:38:00;100716.75;;;7.41;85.08
84990;BME280;75307;53.836;10.476;2024-02-21T16:40:03;100696.78;;;7.37;85.25
84990;BME280;75307;53.836;10.476;2024-02-21T16:42:05;100695.06;;;7.36;85.73
84990;BME280;75307;53.836;10.476;2024-02-21T16:44:08;100685.47;;;7.37;85.89
84990;BME280;75307;53.836;10.476;2024-02-21T16:46:10;100670.69;;;7.36;85.73
84990;BME280;75307;53.836;10.476;2024-02-21T16:48:12;100663.75;;;7.35;85.66
84990;BME280;75307;53.836;10.476;2024-02-21T16:50:14;100667.31;;;7.31;86.00
84990;BME280;75307;53.836;10.476;2024-02-21T16:52:15;100659.47;;;7.31;86.08
84990;BME280;75307;53.836;10.476;2024-02-21T16:54:20;100648.34;;;7.21;85.82
84990;BME280;75307;53.836;10.476;2024-02-21T16:56:22;100654.28;;;7.28;86.23
84990;BME280;75307;53.836;10.476;2024-02-21T16:58:24;100644.78;;;7.25;86.28
84990;BME280;75307;53.836;10.476;2024-02-21T17:00:27;100642.22;;;7.22;86.34
84990;BME280;75307;53.836;10.476;2024-02-21T17:02:29;100643.97;;;7.22;86.51
84990;BME280;75307;53.836;10.476;2024-02-21T17:04:31;100653.56;;;7.21;86.39
84990;BME280;75307;53.836;10.476;2024-02-21T17:06:33;100654.47;;;7.18;86.43
84990;BME280;75307;53.836;10.476;2024-02-21T17:08:33;100663.25;;;7.16;86.35
84990;BME280;75307;53.836;10.476;2024-02-21T17:10:35;100682.50;;;7.12;86.33
84990;BME280;75307;53.836;10.476;2024-02-21T17:12:36;100674.72;;;7.10;86.72
84990;BME280;75307;53.836;10.476;2024-02-21T17:14:38;100680.84;;;7.09;86.69
84990;BME280;75307;53.836;10.476;2024-02-21T17:16:41;100673.84;;;7.08;86.78
84990;BME280;75307;53.836;10.476;2024-02-21T17:18:43;100667.78;;;7.08;86.61
84990;BME280;75307;53.836;10.476;2024-02-21T17:20:46;100657.31;;;7.08;86.39
84990;BME280;75307;53.836;10.476;2024-02-21T17:22:49;100667.78;;;7.08;86.45
84990;BME280;75307;53.836;10.476;2024-02-21T17:24:51;100656.53;;;7.04;86.63
84990;BME280;75307;53.836;10.476;2024-02-21T17:26:53;100652.22;;;7.02;86.26
84990;BME280;75307;53.836;10.476;2024-02-21T17:28:54;100645.28;;;7.01;86.57
84990;BME280;75307;53.836;10.476;2024-02-21T17:30:56;100650.47;;;7.02;86.60
84990;BME280;75307;53.836;10.476;2024-02-21T17:32:59;100650.44;;;7.04;86.59
84990;BME280;75307;53.836;10.476;2024-02-21T17:35:02;100645.19;;;7.04;86.37
84990;BME280;75307;53.836;10.476;2024-02-21T17:37:04;100627.03;;;6.98;86.28
84990;BME280;75307;53.836;10.476;2024-02-21T17:39:06;100632.22;;;7.01;86.38
84990;BME280;75307;53.836;10.476;2024-02-21T17:41:10;100628.75;;;6.99;86.34
84990;BME280;75307;53.836;10.476;2024-02-21T17:43:12;100622.66;;;7.00;86.50
84990;BME280;75307;53.836;10.476;2024-02-21T17:45:13;100611.31;;;6.99;86.17
84990;BME280;75307;53.836;10.476;2024-02-21T17:47:14;100619.16;;;7.01;86.17
84990;BME280;75307;53.836;10.476;2024-02-21T17:49:17;100607.84;;;7.00;86.10
84990;BME280;75307;53.836;10.476;2024-02-21T17:51:20;100606.09;;;7.01;85.93
84990;BME280;75307;53.836;10.476;2024-02-21T17:53:22;100593.88;;;7.01;85.75
84990;BME280;75307;53.836;10.476;2024-02-21T17:55:25;100589.50;;;7.02;86.21
84990;BME280;75307;53.836;10.476;2024-02-21T17:57:27;100579.91;;;7.02;85.78
84990;BME280;75307;53.836;10.476;2024-02-21T17:59:28;100573.88;;;7.00;85.64
84990;BME280;75307;53.836;10.476;2024-02-21T18:01:30;100571.25;;;7.00;85.60
84990;BME280;75307;53.836;10.476;2024-02-21T18:03:31;100573.03;;;6.98;85.33
84990;BME280;75307;53.836;10.476;2024-02-21T18:05:34;100569.59;;;6.96;85.40
84990;BME280;75307;53.836;10.476;2024-02-21T18:07:35;100566.97;;;6.96;85.44
84990;BME280;75307;53.836;10.476;2024-02-21T18:09:37;100561.78;;;6.94;84.99
84990;BME280;75307;53.836;10.476;2024-02-21T18:11:39;100557.44;;;6.95;85.14
84990;BME280;75307;53.836;10.476;2024-02-21T18:13:41;100544.38;;;6.95;84.97
84990;BME280;75307;53.836;10.476;2024-02-21T18:15:42;100540.88;;;6.94;85.05
84990;BME280;75307;53.836;10.476;2024-02-21T18:17:44;100533.94;;;6.93;84.96
84990;BME280;75307;53.836;10.476;2024-02-21T18:19:45;100537.44;;;6.92;84.89
84990;BME280;75307;53.836;10.476;2024-02-21T18:21:48;100535.72;;;6.91;84.87
84990;BME280;75307;53.836;10.476;2024-02-21T18:23:50;100530.56;;;6.88;84.79
84990;BME280;75307;53.836;10.476;2024-02-21T18:25:52;100528.88;;;6.86;84.97
84990;BME280;75307;53.836;10.476;2024-02-21T18:27:53;100525.38;;;6.87;84.79
84990;BME280;75307;53.836;10.476;2024-02-21T18:29:55;100515.81;;;6.86;84.61
84990;BME280;75307;53.836;10.476;2024-02-21T18:31:57;100507.94;;;6.87;84.31
84990;BME280;75307;53.836;10.476;2024-02-21T18:34:00;100496.75;;;6.82;84.66
84990;BME280;75307;53.836;10.476;2024-02-21T18:36:04;100508.81;;;6.88;84.24
84990;BME280;75307;53.836;10.476;2024-02-21T18:38:07;100507.94;;;6.87;84.49
84990;BME280;75307;53.836;10.476;2024-02-21T18:40:10;100481.16;;;6.78;83.88
84990;BME280;75307;53.836;10.476;2024-02-21T18:42:12;100490.56;;;6.85;84.22
84990;BME280;75307;53.836;10.476;2024-02-21T18:44:13;100472.31;;;6.83;84.10
84990;BME280;75307;53.836;10.476;2024-02-21T18:46:15;100488.91;;;6.82;83.93
84990;BME280;75307;53.836;10.476;2024-02-21T18:48:17;100471.50;;;6.81;83.76
84990;BME280;75307;53.836;10.476;2024-02-21T18:50:19;100471.50;;;6.81;83.77
84990;BME280;75307;53.836;10.476;2024-02-21T18:52:20;100461.91;;;6.82;83.92
84990;BME280;75307;53.836;10.476;2024-02-21T18:54:23;100465.38;;;6.82;83.57
84990;BME280;75307;53.836;10.476;2024-02-21T18:56:25;100457.50;;;6.85;83.69
84990;BME280;75307;53.836;10.476;2024-02-21T18:58:29;100451.38;;;6.85;83.29
84990;BME280;75307;53.836;10.476;2024-02-21T19:00:31;100442.72;;;6.83;83.32
84990;BME280;75307;53.836;10.476;2024-02-21T19:02:33;100440.16;;;6.81;83.44
84990;BME280;75307;53.836;10.476;2024-02-21T19:04:35;100444.53;;;6.79;83.67
84990;BME280;75307;53.836;10.476;2024-02-21T19:06:38;100437.56;;;6.81;83.19
84990;BME280;75307;53.836;10.476;2024-02-21T19:08:39;100440.13;;;6.83;83.42
84990;BME280;75307;53.836;10.476;2024-02-21T19:10:42;100424.50;;;6.80;83.02
84990;BME280;75307;53.836;10.476;2024-02-21T19:12:43;100435.75;;;6.83;83.27
84990;BME280;75307;53.836;10.476;2024-02-21T19:14:45;100427.97;;;6.80;83.03
84990;BME280;75307;53.836;10.476;2024-02-21T19:16:47;100423.59;;;6.82;82.86
84990;BME280;75307;53.836;10.476;2024-02-21T19:18:48;100420.13;;;6.82;83.07
84990;BME280;75307;53.836;10.476;2024-02-21T19:20:50;100416.66;;;6.81;82.61
84990;BME280;75307;53.836;10.476;2024-02-21T19:22:53;100414.97;;;6.79;82.63
84990;BME280;75307;53.836;10.476;2024-02-21T19:24:54;100413.13;;;6.82;82.61
84990;BME280;75307;53.836;10.476;2024-02-21T19:26:57;100409.59;;;6.85;82.73
84990;BME280;75307;53.836;10.476;2024-02-21T19:28:58;100405.19;;;6.87;82.38
84990;BME280;75307;53.836;10.476;2024-02-21T19:31:00;100406.97;;;6.86;82.33
84990;BME280;75307;53.836;10.476;2024-02-21T19:33:04;100398.22;;;6.87;82.24
84990;BME280;75307;53.836;10.476;2024-02-21T19:35:06;100393.00;;;6.87;82.08
84990;BME280;75307;53.836;10.476;2024-02-21T19:37:11;100386.91;;;6.87;82.21
84990;BME280;75307;53.836;10.476;2024-02-21T19:39:13;100384.34;;;6.85;82.23
84990;BME280;75307;53.836;10.476;2024-02-21T19:41:15;100380.00;;;6.84;82.33
84990;BME280;75307;53.836;10.476;2024-02-21T19:43:18;100377.38;;;6.84;82.14
84990;BME280;75307;53.836;10.476;2024-02-21T19:45:19;100366.94;;;6.84;82.21
84990;BME280;75307;53.836;10.476;2024-02-21T19:47:21;100365.22;;;6.83;82.27
84990;BME280;75307;53.836;10.476;2024-02-21T19:49:23;100360.00;;;6.83;81.85
84990;BME280;75307;53.836;10.476;2024-02-21T19:51:25;100360.00;;;6.83;81.27
84990;BME280;75307;53.836;10.476;2024-02-21T19:53:27;100361.69;;;6.84;81.69
84990;BME280;75307;53.836;10.476;2024-02-21T19:55:29;100355.56;;;6.87;81.69
84990;BME280;75307;53.836;10.476;2024-02-21T19:57:30;100355.56;;;6.87;81.91
84990;BME280;75307;53.836;10.476;2024-02-21T19:59:34;100344.25;;;6.86;81.21
84990;BME280;75307;53.836;10.476;2024-02-21T20:01:37;100337.28;;;6.87;81.54
84990;BME280;75307;53.836;10.476;2024-02-21T20:03:40;100339.03;;;6.86;81.37
84990;BME280;75307;53.836;10.476;2024-02-21T20:05:41;100332.13;;;6.84;81.42
84990;BME280;75307;53.836;10.476;2024-02-21T20:07:44;100337.38;;;6.82;81.57
84990;BME280;75307;53.836;10.476;2024-02-21T20:09:46;100319.97;;;6.83;81.34
84990;BME280;75307;53.836;10.476;2024-02-21T20:11:48;100321.66;;;6.85;81.23
84990;BME280;75307;53.836;10.476;2024-02-21T20:13:50;100319.84;;;6.87;81.26
84990;BME280;75307;53.836;10.476;2024-02-21T20:15:53;100314.56;;;6.90;81.11
84990;BME280;75307;53.836;10.476;2024-02-21T20:17:55;100300.75;;;6.85;80.93
84990;BME280;75307;53.836;10.476;2024-02-21T20:19:59;100309.31;;;6.90;80.89
84990;BME280;75307;53.836;10.476;2024-02-21T20:22:00;100299.75;;;6.89;81.06
84990;BME280;75307;53.836;10.476;2024-02-21T20:24:02;100290.19;;;6.88;80.81
84990;BME280;75307;53.836;10.476;2024-02-21T20:26:04;100283.22;;;6.89;80.88
84990;BME280;75307;53.836;10.476;2024-02-21T20:28:06;100270.13;;;6.90;80.83
84990;BME280;75307;53.836;10.476;2024-02-21T20:30:09;100282.25;;;6.93;80.43
84990;BME280;75307;53.836;10.476;2024-02-21T20:32:12;100272.75;;;6.90;80.42
84990;BME280;75307;53.836;10.476;2024-02-21T20:34:14;100263.22;;;6.88;80.92
84990;BME280;75307;53.836;10.476;2024-02-21T20:36:17;100267.53;;;6.90;80.64
84990;BME280;75307;53.836;10.476;2024-02-21T20:38:19;100262.31;;;6.89;80.55
84990;BME280;75307;53.836;10.476;2024-02-21T20:40:20;100262.19;;;6.93;80.43
84990;BME280;75307;53.836;10.476;2024-02-21T20:42:23;100260.41;;;6.96;80.43
84990;BME280;75307;53.836;10.476;2024-02-21T20:44:25;100259.53;;;6.97;80.22
84990;BME280;75307;53.836;10.476;2024-02-21T20:46:26;100249.00;;;6.98;80.28
84990;BME280;75307;53.836;10.476;2024-02-21T20:48:29;100247.25;;;7.00;80.39
84990;BME280;75307;53.836;10.476;2024-02-21T20:50:31;100240.16;;;7.04;79.99
84990;BME280;75307;53.836;10.476;2024-02-21T20:52:34;100247.06;;;7.06;79.78
84990;BME280;75307;53.836;10.476;2024-02-21T20:54:34;100244.41;;;7.08;79.91
84990;BME280;75307;53.836;10.476;2024-02-21T20:56:36;100240.88;;;7.09;79.58
84990;BME280;75307;53.836;10.476;2024-02-21T20:58:38;100234.72;;;7.11;79.61
84990;BME280;75307;53.836;10.476;2024-02-21T21:00:40;100225.19;;;7.09;79.39
84990;BME280;75307;53.836;10.476;2024-02-21T21:02:40;100218.31;;;7.06;79.91
84990;BME280;75307;53.836;10.476;2024-02-21T21:04:43;100207.81;;;7.08;79.42
84990;BME280;75307;53.836;10.476;2024-02-21T21:06:45;100203.41;;;7.10;79.38
84990;BME280;75307;53.836;10.476;2024-02-21T21:08:47;100208.66;;;7.08;79.40
84990;BME280;75307;53.836;10.476;2024-02-21T21:10:49;100200.09;;;7.05;79.42
84990;BME280;75307;53.836;10.476;2024-02-21T21:12:50;100200.09;;;7.03;79.35
84990;BME280;75307;53.836;10.476;2024-02-21T21:14:52;100190.59;;;7.01;79.31
84990;BME280;75307;53.836;10.476;2024-02-21T21:16:54;100188.06;;;6.98;79.38
84990;BME280;75307;53.836;10.476;2024-02-21T21:18:56;100188.13;;;6.96;79.58
84990;BME280;75307;53.836;10.476;2024-02-21T21:20:59;100182.13;;;6.92;79.31
84990;BME280;75307;53.836;10.476;2024-02-21T21:23:01;100183.81;;;6.93;79.48
84990;BME280;75307;53.836;10.476;2024-02-21T21:25:04;100183.06;;;6.90;79.36
84990;BME280;75307;53.836;10.476;2024-02-21T21:27:05;100184.00;;;6.87;79.44
84990;BME280;75307;53.836;10.476;2024-02-21T21:29:07;100174.53;;;6.83;79.73
84990;BME280;75307;53.836;10.476;2024-02-21T21:31:09;100175.50;;;6.79;79.46
84990;BME280;75307;53.836;10.476;2024-02-21T21:33:11;100178.09;;;6.79;79.64
84990;BME280;75307;53.836;10.476;2024-02-21T21:35:12;100171.22;;;6.77;79.33
84990;BME280;75307;53.836;10.476;2024-02-21T21:37:15;100169.59;;;6.73;79.80
84990;BME280;75307;53.836;10.476;2024-02-21T21:39:16;100167.03;;;6.71;79.80
84990;BME280;75307;53.836;10.476;2024-02-21T21:41:18;100144.66;;;6.61;79.63
84990;BME280;75307;53.836;10.476;2024-02-21T21:43:21;100149.81;;;6.64;80.06
84990;BME280;75307;53.836;10.476;2024-02-21T21:45:23;100134.19;;;6.62;80.14
84990;BME280;75307;53.836;10.476;2024-02-21T21:47:24;100109.22;;;6.52;80.08
84990;BME280;75307;53.836;10.476;2024-02-21T21:49:26;100122.84;;;6.63;79.88
84990;BME280;75307;53.836;10.476;2024-02-21T21:51:29;100122.06;;;6.60;80.03
84990;BME280;75307;53.836;10.476;2024-02-21T21:53:32;100131.69;;;6.58;80.17
84990;BME280;75307;53.836;10.476;2024-02-21T21:55:34;100111.72;;;6.57;80.03
84990;BME280;75307;53.836;10.476;2024-02-21T21:57:36;100103.94;;;6.54;80.49
84990;BME280;75307;53.836;10.476;2024-02-21T21:59:37;100104.84;;;6.53;80.41
84990;BME280;75307;53.836;10.476;2024-02-21T22:01:39;100103.16;;;6.50;80.34
84990;BME280;75307;53.836;10.476;2024-02-21T22:03:41;100095.34;;;6.50;80.54
84990;BME280;75307;53.836;10.476;2024-02-21T22:05:43;100089.25;;;6.50;80.51
84990;BME280;75307;53.836;10.476;2024-02-21T22:07:45;100085.78;;;6.49;80.68
84990;BME280;75307;53.836;10.476;2024-02-21T22:09:49;100082.34;;;6.49;80.50
84990;BME280;75307;53.836;10.476;2024-02-21T22:11:51;100080.50;;;6.52;80.61
84990;BME280;75307;53.836;10.476;2024-02-21T22:13:52;100076.13;;;6.53;80.56
84990;BME280;75307;53.836;10.476;2024-02-21T22:15:54;100075.22;;;6.54;80.54
84990;BME280;75307;53.836;10.476;2024-02-21T22:17:56;100064.78;;;6.54;80.57
84990;BME280;75307;53.836;10.476;2024-02-21T22:20:00;100051.06;;;6.47;80.73
84990;BME280;75307;53.836;10.476;2024-02-21T22:22:02;100065.59;;;6.56;80.52
84990;BME280;75307;53.836;10.476;2024-02-21T22:24:05;100058.59;;;6.58;80.21
84990;BME280;75307;53.836;10.476;2024-02-21T22:26:08;100060.34;;;6.56;80.46
84990;BME280;75307;53.836;10.476;2024-02-21T22:28:10;100056.03;;;6.55;80.52
84990;BME280;75307;53.836;10.476;2024-02-21T22:30:12;100040.44;;;6.53;80.62
84990;BME280;75307;53.836;10.476;2024-02-21T22:32:13;100047.41;;;6.53;80.43
84990;BME280;75307;53.836;10.476;2024-02-21T22:34:14;100039.53;;;6.54;80.49
84990;BME280;75307;53.836;10.476;2024-02-21T22:36:17;100032.59;;;6.53;80.53
84990;BME280;75307;53.836;10.476;2024-02-21T22:38:17;100028.31;;;6.51;80.54
84990;BME280;75307;53.836;10.476;2024-02-21T22:40:19;100009.28;;;6.47;80.55
84990;BME280;75307;53.836;10.476;2024-02-21T22:42:22;100025.88;;;6.45;80.77
84990;BME280;75307;53.836;10.476;2024-02-21T22:44:24;100032.00;;;6.43;80.43
84990;BME280;75307;53.836;10.476;2024-02-21T22:46:26;100018.94;;;6.43;80.71
84990;BME280;75307;53.836;10.476;2024-02-21T22:48:28;100013.72;;;6.43;80.56
84990;BME280;75307;53.836;10.476;2024-02-21T22:50:29;100011.13;;;6.43;80.79
84990;BME280;75307;53.836;10.476;2024-02-21T22:52:31;100010.28;;;6.41;80.27
84990;BME280;75307;53.836;10.476;2024-02-21T22:54:33;100003.41;;;6.39;80.71
84990;BME280;75307;53.836;10.476;2024-02-21T22:56:35;100000.81;;;6.39;80.88
84990;BME280;75307;53.836;10.476;2024-02-21T22:58:38;99998.13;;;6.40;80.88
84990;BME280;75307;53.836;10.476;2024-02-21T23:00:39;99987.75;;;6.39;80.98
84990;BME280;75307;53.836;10.476;2024-02-21T23:02:41;99985.19;;;6.37;81.23
84990;BME280;75307;53.836;10.476;2024-02-21T23:04:44;99974.84;;;6.34;81.07
84990;BME280;75307;53.836;10.476;2024-02-21T23:06:46;99967.00;;;6.34;81.07
84990;BME280;75307;53.836;10.476;2024-02-21T23:08:47;99964.41;;;6.34;81.18
84990;BME280;75307;53.836;10.476;2024-02-21T23:10:49;99962.69;;;6.33;81.14
84990;BME280;75307;53.836;10.476;2024-02-21T23:12:51;99956.63;;;6.33;81.16
84990;BME280;75307;53.836;10.476;2024-02-21T23:14:54;99943.50;;;6.34;80.89
84990;BME280;75307;53.836;10.476;2024-02-21T23:16:55;99949.63;;;6.33;81.08
84990;BME280;75307;53.836;10.476;2024-02-21T23:18:57;99947.03;;;6.33;81.67
84990;BME280;75307;53.836;10.476;2024-02-21T23:20:58;99945.28;;;6.34;81.14
84990;BME280;75307;53.836;10.476;2024-02-21T23:23:00;99938.22;;;6.36;81.27
84990;BME280;75307;53.836;10.476;2024-02-21T23:25:03;99937.31;;;6.37;81.29
84990;BME280;75307;53.836;10.476;2024-02-21T23:27:05;99933.88;;;6.36;81.36
84990;BME280;75307;53.836;10.476;2024-02-21T23:29:07;99931.25;;;6.38;81.47
84990;BME280;75307;53.836;10.476;2024-02-21T23:31:12;99922.44;;;6.40;81.55
84990;BME280;75307;53.836;10.476;2024-02-21T23:33:14;99924.19;;;6.40;81.24
84990;BME280;75307;53.836;10.476;2024-02-21T23:35:16;99918.19;;;6.38;81.32
84990;BME280;75307;53.836;10.476;2024-02-21T23:37:18;99912.06;;;6.39;81.37
84990;BME280;75307;53.836;10.476;2024-02-21T23:39:19;99904.28;;;6.37;81.33
84990;BME280;75307;53.836;10.476;2024-02-21T23:41:21;99895.56;;;6.37;81.82
84990;BME280;75307;53.836;10.476;2024-02-21T23:43:23;99897.44;;;6.33;81.92
84990;BME280;75307;53.836;10.476;2024-02-21T23:45:25;99900.06;;;6.33;81.78
84990;BME280;75307;53.836;10.476;2024-02-21T23:47:28;99890.47;;;6.32;81.83
84990;BME280;75307;53.836;10.476;2024-02-21T23:49:29;99883.66;;;6.28;81.82
84990;BME280;75307;53.836;10.476;2024-02-21T23:51:31;99883.56;;;6.31;81.59
84990;BME280;75307;53.836;10.476;2024-02-21T23:53:33;99868.00;;;6.28;82.06
84990;BME280;75307;53.836;10.476;2024-02-21T23:55:35;99863.78;;;6.24;82.09
84990;BME280;75307;53.836;10.476;2024-02-21T23:57:36;99857.03;;;6.17;82.16
84990;BME280;75307;53.836;10.476;2024-02-21T23:59:39;99858.56;;;6.24;82.09
